Time;durP1;ratioP1;P1;durP2;ratioP2;P2;SDS_P1;SDS_P2;PMS_P1;PMS_P2;Temp;Humidity;BMP_temperature;BMP_pressure;BME280_temperature;BME280_humidity;BME280_pressure;Samples;Min_cycle;Max_cycle;Signal;HPM_P1;HPM_P2
2022/01/09 00:00:37;;;;;;;5.68;1.73;;;9.80;67.60;;;;;;6367453;27;20027;-69
2022/01/09 00:03:39;;;;;;;5.10;1.90;;;9.90;67.60;;;;;;6367929;27;20041;-70
2022/01/09 00:06:40;;;;;;;4.00;1.83;;;9.90;67.30;;;;;;6363197;27;20061;-70
2022/01/09 00:09:44;;;;;;;10.52;2.38;;;9.90;67.30;;;;;;6348603;27;20026;-69
2022/01/09 00:12:46;;;;;;;2.78;1.45;;;10.00;67.30;;;;;;6331953;27;20023;-69
2022/01/09 00:15:47;;;;;;;8.73;3.88;;;10.00;67.20;;;;;;6366249;27;20031;-68
2022/01/09 00:18:49;;;;;;;9.55;3.97;;;10.00;67.00;;;;;;6347341;27;20054;-68
2022/01/09 00:21:50;;;;;;;13.57;4.65;;;10.00;66.90;;;;;;6346638;27;20019;-69
2022/01/09 00:24:51;;;;;;;8.45;4.22;;;10.00;66.90;;;;;;6366114;27;20435;-71
2022/01/09 00:27:52;;;;;;;11.57;4.70;;;9.90;67.00;;;;;;6366330;27;20027;-68
2022/01/09 00:30:54;;;;;;;10.02;4.30;;;9.80;67.20;;;;;;6348421;27;20153;-68
2022/01/09 00:33:55;;;;;;;11.98;4.32;;;9.70;67.50;;;;;;6331018;27;20045;-68
2022/01/09 00:36:56;;;;;;;13.60;4.82;;;9.70;68.60;;;;;;6363403;27;20044;-69
2022/01/09 00:39:57;;;;;;;9.65;4.07;;;9.60;67.90;;;;;;6349256;27;20031;-68
2022/01/09 00:42:58;;;;;;;8.13;4.60;;;9.60;68.00;;;;;;6364923;27;20055;-69
2022/01/09 00:45:59;;;;;;;10.38;4.43;;;9.50;68.10;;;;;;6347795;27;20476;-69
2022/01/09 00:49:04;;;;;;;7.80;3.80;;;9.60;68.30;;;;;;6365048;27;20020;-68
2022/01/09 00:52:05;;;;;;;6.43;2.90;;;9.50;68.50;;;;;;6365670;27;20027;-68
2022/01/09 00:55:07;;;;;;;6.53;3.15;;;9.50;68.60;;;;;;6347609;27;20110;-68
2022/01/09 00:58:09;;;;;;;6.35;3.17;;;9.50;68.80;;;;;;6348111;27;20367;-68
2022/01/09 01:01:10;;;;;;;5.30;2.20;;;9.40;68.90;;;;;;6346937;27;20030;-68
2022/01/09 01:04:11;;;;;;;3.83;2.00;;;9.40;69.10;;;;;;6348726;27;20049;-68
2022/01/09 01:07:12;;;;;;;5.25;2.05;;;9.40;69.30;;;;;;6346213;27;20560;-69
2022/01/09 01:10:14;;;;;;;5.38;2.15;;;9.30;69.50;;;;;;6365031;27;20030;-69
2022/01/09 01:13:15;;;;;;;2.35;1.70;;;9.30;69.90;;;;;;6366935;27;20407;-69
2022/01/09 01:16:16;;;;;;;6.93;1.95;;;9.30;70.10;;;;;;6346498;27;20039;-69
2022/01/09 01:19:17;;;;;;;4.53;1.58;;;9.30;70.20;;;;;;6347161;27;20066;-69
2022/01/09 01:22:18;;;;;;;5.30;1.42;;;9.30;70.20;;;;;;6347873;27;20039;-70
2022/01/09 01:25:20;;;;;;;3.88;2.00;;;9.30;70.40;;;;;;6365957;27;20019;-70
2022/01/09 01:28:21;;;;;;;5.15;1.63;;;9.30;70.70;;;;;;6362878;27;20112;-68
2022/01/09 01:31:22;;;;;;;4.40;2.35;;;9.30;70.70;;;;;;6343426;28;20466;-68
2022/01/09 01:34:23;;;;;;;3.67;1.45;;;9.30;70.90;;;;;;6364795;28;20023;-70
2022/01/09 01:37:24;;;;;;;5.60;1.60;;;9.40;71.20;;;;;;6367037;28;20276;-70
2022/01/09 01:40:25;;;;;;;4.75;2.00;;;9.40;71.20;;;;;;6364494;28;20076;-69
2022/01/09 01:43:27;;;;;;;4.93;2.10;;;9.40;71.10;;;;;;6348589;28;20626;-69
2022/01/09 01:46:28;;;;;;;5.88;3.10;;;9.40;71.00;;;;;;6346754;28;20038;-69
2022/01/09 01:49:29;;;;;;;6.38;2.63;;;9.40;71.10;;;;;;6363756;27;20023;-70
2022/01/09 01:52:36;;;;;;;8.02;3.30;;;9.40;71.10;;;;;;6366089;28;20447;-70
2022/01/09 01:55:39;;;;;;;8.75;3.45;;;9.40;71.10;;;;;;6364442;27;20031;-69
2022/01/09 01:58:40;;;;;;;6.90;3.33;;;9.30;70.90;;;;;;6347310;28;20054;-69
2022/01/09 02:01:42;;;;;;;8.75;4.43;;;9.30;71.00;;;;;;6327634;28;20027;-69
2022/01/09 02:04:43;;;;;;;7.18;3.22;;;9.30;71.10;;;;;;6345976;28;20057;-69
2022/01/09 02:07:44;;;;;;;6.65;2.80;;;9.30;71.00;;;;;;6364159;28;20023;-69
2022/01/09 02:10:46;;;;;;;8.60;3.85;;;9.30;71.00;;;;;;6365826;27;20027;-69
2022/01/09 02:13:47;;;;;;;7.72;3.80;;;9.30;70.90;;;;;;6361399;27;20114;-70
2022/01/09 02:16:50;;;;;;;7.75;3.85;;;9.40;70.90;;;;;;6347624;28;20038;-68
2022/01/09 02:19:58;;;;;;;6.00;3.17;;;9.40;70.80;;;;;;6346520;27;20027;-69
2022/01/09 02:22:59;;;;;;;2.65;0.90;;;9.50;70.80;;;;;;6327300;28;20039;-70
2022/01/09 02:26:00;;;;;;;0.63;0.30;;;9.50;70.40;;;;;;6329815;27;20067;-70
2022/01/09 02:29:05;;;;;;;1.83;0.40;;;9.30;69.50;;;;;;6329637;28;20051;-70
2022/01/09 02:32:06;;;;;;;0.60;0.50;;;9.00;68.70;;;;;;6364194;28;20564;-70
2022/01/09 02:35:08;;;;;;;0.75;0.30;;;8.70;68.90;;;;;;6363267;28;20035;-70
2022/01/09 02:38:09;;;;;;;0.20;0.20;;;8.50;69.50;;;;;;6346630;27;20546;-70
2022/01/09 02:41:10;;;;;;;0.22;0.22;;;8.30;70.10;;;;;;6351024;27;20867;-71
2022/01/09 02:44:11;;;;;;;3.30;0.30;;;8.30;70.50;;;;;;6367974;27;20023;-73
2022/01/09 02:47:12;;;;;;;3.90;0.68;;;8.20;70.70;;;;;;6360961;27;20027;-70
2022/01/09 02:50:36;;;;;;;0.32;0.22;;;8.20;70.80;;;;;;6331958;27;20031;-69
2022/01/09 02:53:38;;;;;;;1.15;0.30;;;8.30;70.90;;;;;;6354129;27;20039;-69
2022/01/09 02:56:39;;;;;;;1.27;0.22;;;8.30;70.70;;;;;;6355282;27;20038;-69
2022/01/09 02:59:40;;;;;;;0.40;0.20;;;8.40;70.50;;;;;;6335261;27;20114;-69
2022/01/09 03:02:42;;;;;;;0.90;0.30;;;8.40;70.10;;;;;;6338773;27;20035;-70
2022/01/09 03:05:43;;;;;;;3.05;0.40;;;8.50;69.80;;;;;;6355765;27;20029;-71
2022/01/09 03:08:44;;;;;;;1.85;0.22;;;8.60;70.30;;;;;;6336783;27;20023;-71
2022/01/09 03:11:47;;;;;;;0.60;0.20;;;8.70;69.20;;;;;;6355591;27;20027;-72
2022/01/09 03:14:48;;;;;;;2.80;0.10;;;8.70;69.10;;;;;;6333366;27;20106;-70
2022/01/09 03:17:49;;;;;;;4.22;0.43;;;8.70;68.90;;;;;;6322334;27;20037;-71
2022/01/09 03:20:50;;;;;;;3.30;0.75;;;8.80;68.80;;;;;;6311485;27;20023;-71
2022/01/09 03:23:51;;;;;;;1.27;0.40;;;8.80;68.80;;;;;;6326151;27;20756;-70
2022/01/09 03:26:52;;;;;;;0.10;0.10;;;8.90;68.50;;;;;;6308670;27;20563;-70
2022/01/09 03:29:53;;;;;;;0.95;0.20;;;8.80;68.20;;;;;;6318467;27;20035;-70
2022/01/09 03:32:55;;;;;;;3.15;0.82;;;8.90;68.20;;;;;;6298312;27;20611;-71
2022/01/09 03:35:56;;;;;;;0.73;0.43;;;9.00;67.90;;;;;;6298688;27;20031;-70
2022/01/09 03:38:57;;;;;;;2.95;0.40;;;9.10;67.70;;;;;;6283568;27;20494;-70
2022/01/09 03:41:59;;;;;;;1.05;0.08;;;9.20;67.70;;;;;;6302917;27;20023;-70
2022/01/09 03:45:00;;;;;;;6.03;0.70;;;9.30;67.40;;;;;;6287746;27;20039;-70
2022/01/09 03:48:01;;;;;;;0.98;0.55;;;9.40;67.30;;;;;;6307459;27;20023;-71
2022/01/09 03:51:03;;;;;;;1.60;0.20;;;9.50;67.20;;;;;;6322008;27;20348;-70
2022/01/09 03:54:05;;;;;;;4.38;0.55;;;9.50;66.90;;;;;;6326869;27;20035;-70
2022/01/09 03:57:07;;;;;;;1.63;0.45;;;9.60;66.70;;;;;;6304873;27;20367;-71
2022/01/09 04:00:11;;;;;;;3.13;0.70;;;9.70;66.30;;;;;;6308935;27;20058;-71
2022/01/09 04:03:13;;;;;;;3.67;0.30;;;9.70;65.50;;;;;;6328108;27;20037;-70
2022/01/09 04:06:14;;;;;;;0.93;0.30;;;9.70;65.60;;;;;;6327957;27;20028;-70
2022/01/09 04:09:20;;;;;;;3.95;0.38;;;9.70;65.40;;;;;;6337383;27;20646;-72
2022/01/09 04:12:33;;;;;;;0.25;0.25;;;9.60;64.50;;;;;;6295192;27;20066;-70
2022/01/09 04:15:34;;;;;;;5.53;0.40;;;9.50;64.70;;;;;;6319614;27;20035;-70
2022/01/09 04:18:35;;;;;;;2.53;0.80;;;9.50;64.90;;;;;;6308021;27;20038;-70
2022/01/09 04:21:36;;;;;;;1.50;0.30;;;9.40;64.80;;;;;;6288518;27;20938;-72
2022/01/09 04:24:37;;;;;;;0.60;0.10;;;9.30;64.30;;;;;;6297193;27;20031;-72
2022/01/09 04:27:38;;;;;;;2.47;0.25;;;9.20;63.90;;;;;;6304221;27;20452;-70
2022/01/09 04:30:40;;;;;;;3.10;0.50;;;9.30;64.10;;;;;;6327763;27;20019;-70
2022/01/09 04:33:42;;;;;;;1.60;0.17;;;9.30;63.70;;;;;;6290966;27;20042;-71
2022/01/09 04:36:43;;;;;;;2.35;0.40;;;9.30;63.00;;;;;;6308759;27;20035;-70
2022/01/09 04:39:47;;;;;;;5.40;1.00;;;9.30;61.40;;;;;;6310198;27;20064;-69
2022/01/09 04:42:53;;;;;;;3.17;0.63;;;9.40;61.50;;;;;;6339337;27;20485;-70
2022/01/09 04:45:54;;;;;;;3.60;0.73;;;9.50;61.80;;;;;;6339016;27;20019;-69
2022/01/09 04:48:56;;;;;;;7.55;0.70;;;9.60;61.30;;;;;;6321563;27;20030;-71
2022/01/09 04:51:57;;;;;;;5.43;0.38;;;9.70;61.10;;;;;;6308186;27;20035;-70
2022/01/09 04:54:59;;;;;;;4.65;0.57;;;9.60;61.20;;;;;;6321991;27;20122;-70
2022/01/09 04:58:01;;;;;;;6.60;0.70;;;9.50;62.10;;;;;;6338369;27;20723;-71
2022/01/09 05:01:03;;;;;;;1.52;0.30;;;9.30;62.50;;;;;;6340150;27;20035;-71
2022/01/09 05:04:04;;;;;;;0.43;0.22;;;9.20;62.70;;;;;;6321162;27;20050;-70
2022/01/09 05:07:05;;;;;;;1.80;0.52;;;9.10;62.50;;;;;;6320531;27;20034;-71
2022/01/09 05:10:08;;;;;;;3.58;0.52;;;9.00;61.70;;;;;;6334357;27;20016;-71
2022/01/09 05:13:09;;;;;;;0.40;0.20;;;9.00;61.90;;;;;;6326389;27;20012;-71
2022/01/09 05:16:10;;;;;;;2.95;0.45;;;9.00;62.10;;;;;;6337292;27;20019;-70
2022/01/09 05:19:28;;;;;;;1.98;0.45;;;9.00;62.50;;;;;;6339232;27;20031;-71
2022/01/09 05:22:29;;;;;;;1.85;0.28;;;9.00;62.80;;;;;;6319265;27;20026;-70
2022/01/09 05:25:30;;;;;;;0.88;0.10;;;9.00;63.10;;;;;;6339572;27;20030;-73
2022/01/09 05:28:31;;;;;;;9.93;0.75;;;9.00;63.40;;;;;;6328289;27;20463;-70
2022/01/09 05:31:32;;;;;;;1.50;0.40;;;8.90;63.50;;;;;;6321854;27;20031;-70
2022/01/09 05:34:33;;;;;;;1.65;0.57;;;8.90;63.80;;;;;;6307792;28;20506;-71
2022/01/09 05:37:34;;;;;;;8.00;0.55;;;8.90;63.90;;;;;;6318367;28;20046;-70
2022/01/09 05:40:36;;;;;;;2.13;0.40;;;9.00;63.80;;;;;;6327939;28;20080;-70
2022/01/09 05:43:39;;;;;;;1.77;0.30;;;9.00;63.60;;;;;;6336460;28;20046;-70
2022/01/09 05:46:40;;;;;;;1.58;0.50;;;9.00;63.30;;;;;;6313757;28;20542;-71
2022/01/09 05:49:41;;;;;;;0.22;0.10;;;9.10;63.50;;;;;;6315996;28;20028;-71
2022/01/09 05:52:43;;;;;;;0.93;0.30;;;9.10;63.60;;;;;;6299712;28;20084;-71
2022/01/09 05:55:43;;;;;;;0.75;0.08;;;9.20;63.70;;;;;;6310798;28;20453;-71
2022/01/09 05:58:44;;;;;;;0.75;0.45;;;9.20;63.90;;;;;;6315689;28;20114;-71
2022/01/09 06:01:46;;;;;;;0.90;0.10;;;9.20;64.00;;;;;;6330779;28;20035;-71
2022/01/09 06:04:47;;;;;;;4.55;0.20;;;9.20;63.90;;;;;;6314298;28;20140;-71
2022/01/09 06:07:50;;;;;;;1.65;0.57;;;9.20;63.90;;;;;;6344055;27;20027;-71
2022/01/09 06:10:51;;;;;;;0.00;0.00;;;9.20;63.90;;;;;;6332617;28;20491;-71
2022/01/09 06:13:52;;;;;;;1.08;0.13;;;9.20;64.00;;;;;;6318928;27;20053;-71
2022/01/09 06:16:53;;;;;;;0.38;0.10;;;9.30;64.00;;;;;;6295923;27;20354;-71
2022/01/09 06:19:54;;;;;;;2.72;0.85;;;9.30;63.80;;;;;;6305514;27;20031;-70
2022/01/09 06:22:55;;;;;;;1.17;0.22;;;9.30;63.70;;;;;;6303698;27;20020;-71
2022/01/09 06:25:56;;;;;;;2.58;0.10;;;9.30;63.80;;;;;;6326438;27;20022;-71
2022/01/09 06:28:57;;;;;;;2.25;0.30;;;9.30;63.60;;;;;;6325845;27;20107;-71
2022/01/09 06:31:58;;;;;;;0.05;0.05;;;9.30;63.40;;;;;;6327313;27;20812;-70
2022/01/09 06:34:59;;;;;;;0.43;0.15;;;9.40;63.50;;;;;;6320020;27;21242;-70
2022/01/09 06:38:00;;;;;;;1.77;0.40;;;9.40;63.60;;;;;;6316068;27;20079;-70
2022/01/09 06:41:01;;;;;;;0.80;0.20;;;9.40;63.50;;;;;;6303930;27;20627;-70
2022/01/09 06:44:02;;;;;;;0.55;0.17;;;9.40;63.40;;;;;;6322872;27;20677;-70
2022/01/09 06:47:04;;;;;;;2.58;0.20;;;9.40;63.30;;;;;;6336283;27;20180;-70
2022/01/09 06:50:06;;;;;;;4.68;0.43;;;9.40;63.20;;;;;;6301639;27;20031;-70
2022/01/09 06:53:07;;;;;;;5.82;0.73;;;9.40;63.30;;;;;;6319629;27;20023;-70
2022/01/09 06:56:08;;;;;;;10.38;0.65;;;9.40;63.00;;;;;;6316330;27;20034;-70
2022/01/09 06:59:09;;;;;;;2.15;0.55;;;9.30;62.40;;;;;;6327936;27;20016;-70
2022/01/09 07:02:10;;;;;;;3.35;0.63;;;9.10;62.10;;;;;;6348640;27;20024;-70
2022/01/09 07:05:12;;;;;;;10.55;1.23;;;9.00;62.50;;;;;;6348957;27;20625;-70
2022/01/09 07:08:13;;;;;;;6.65;0.85;;;8.90;62.50;;;;;;6329379;27;20026;-71
2022/01/09 07:11:14;;;;;;;4.43;0.68;;;8.90;63.60;;;;;;6349524;27;20023;-70
2022/01/09 07:14:15;;;;;;;4.03;0.98;;;8.80;62.50;;;;;;6319811;27;20032;-69
2022/01/09 07:17:17;;;;;;;4.18;0.40;;;8.80;62.70;;;;;;6333682;27;20405;-70
2022/01/09 07:20:18;;;;;;;4.95;1.13;;;8.80;63.00;;;;;;6325770;27;20120;-69
2022/01/09 07:23:19;;;;;;;3.85;0.95;;;8.80;63.20;;;;;;6317336;27;20035;-70
2022/01/09 07:26:20;;;;;;;2.58;0.38;;;8.80;63.20;;;;;;6307744;27;20023;-70
2022/01/09 07:29:21;;;;;;;5.22;0.35;;;8.80;63.30;;;;;;6301429;27;20954;-71
2022/01/09 07:32:23;;;;;;;3.42;0.65;;;8.80;63.30;;;;;;6298000;27;20058;-70
2022/01/09 07:35:24;;;;;;;2.75;0.38;;;8.80;64.20;;;;;;6282251;27;21310;-70
2022/01/09 07:38:25;;;;;;;1.70;0.55;;;8.80;63.60;;;;;;6305215;27;20350;-70
2022/01/09 07:41:27;;;;;;;2.03;0.70;;;8.80;63.90;;;;;;6297996;27;20122;-70
2022/01/09 07:44:29;;;;;;;1.77;0.30;;;8.80;64.00;;;;;;6282773;27;20152;-70
2022/01/09 07:47:30;;;;;;;4.05;0.63;;;8.70;64.10;;;;;;6316477;27;20115;-70
2022/01/09 07:50:33;;;;;;;2.67;0.40;;;8.70;63.70;;;;;;6304997;27;20135;-70
2022/01/09 07:53:34;;;;;;;3.38;0.88;;;8.70;63.80;;;;;;6312407;27;20059;-70
2022/01/09 07:56:35;;;;;;;8.27;0.50;;;8.70;63.90;;;;;;6314788;27;20150;-70
2022/01/09 07:59:36;;;;;;;2.05;0.43;;;8.80;63.70;;;;;;6326460;27;20059;-70
2022/01/09 08:02:37;;;;;;;8.48;0.70;;;8.80;63.50;;;;;;6333239;27;20546;-70
2022/01/09 08:05:39;;;;;;;6.07;1.48;;;8.90;63.70;;;;;;6333809;27;20106;-70
2022/01/09 08:08:40;;;;;;;1.30;0.60;;;8.90;63.70;;;;;;6302421;27;20025;-70
2022/01/09 08:11:41;;;;;;;4.90;0.85;;;8.90;63.80;;;;;;6319223;27;20019;-69
2022/01/09 08:14:44;;;;;;;1.48;0.77;;;8.90;64.10;;;;;;6311176;27;20411;-70
2022/01/09 08:17:46;;;;;;;3.20;1.08;;;9.00;64.20;;;;;;6315629;27;20025;-70
2022/01/09 08:20:47;;;;;;;2.08;1.02;;;9.00;64.30;;;;;;6305448;27;20023;-69
2022/01/09 08:23:49;;;;;;;0.85;0.70;;;9.00;64.50;;;;;;6300154;27;20110;-69
2022/01/09 08:26:51;;;;;;;7.20;0.80;;;9.00;64.50;;;;;;6298601;27;20134;-69
2022/01/09 08:29:52;;;;;;;1.15;0.60;;;9.10;64.40;;;;;;6346575;27;20030;-70
2022/01/09 08:32:53;;;;;;;3.55;0.80;;;9.10;64.50;;;;;;6347219;27;20039;-72
2022/01/09 08:35:55;;;;;;;2.85;0.55;;;9.10;64.50;;;;;;6343494;27;20027;-69
2022/01/09 08:38:56;;;;;;;0.98;0.68;;;9.10;64.50;;;;;;6337528;27;20047;-69
2022/01/09 08:41:57;;;;;;;8.80;1.10;;;9.20;64.50;;;;;;6318005;27;20023;-69
2022/01/09 08:44:58;;;;;;;1.60;0.98;;;9.20;64.50;;;;;;6347087;27;20022;-70
2022/01/09 08:47:59;;;;;;;1.25;0.70;;;9.30;64.60;;;;;;6349525;27;20368;-70
2022/01/09 08:51:01;;;;;;;3.10;0.90;;;9.30;64.50;;;;;;6345469;27;20015;-69
2022/01/09 08:54:02;;;;;;;3.58;1.20;;;9.40;64.50;;;;;;6338810;27;20038;-71
2022/01/09 08:57:03;;;;;;;4.15;0.80;;;9.40;64.30;;;;;;6318315;27;20020;-70
2022/01/09 09:00:06;;;;;;;6.03;1.40;;;9.50;65.00;;;;;;6325541;27;20023;-69
2022/01/09 09:03:08;;;;;;;5.45;1.45;;;9.50;64.20;;;;;;6319546;27;20038;-69
2022/01/09 09:06:15;;;;;;;2.60;1.20;;;9.50;64.20;;;;;;6319287;27;20023;-69
2022/01/09 09:09:16;;;;;;;2.83;1.08;;;9.60;64.10;;;;;;6294052;27;20102;-70
2022/01/09 09:12:18;;;;;;;6.47;1.83;;;9.60;64.20;;;;;;6318206;27;20356;-74
2022/01/09 09:15:20;;;;;;;4.47;1.48;;;9.60;64.10;;;;;;6316873;27;20027;-73
2022/01/09 09:18:21;;;;;;;7.38;1.13;;;9.70;64.00;;;;;;6305512;27;20034;-73
2022/01/09 09:21:22;;;;;;;9.20;1.38;;;9.70;64.00;;;;;;6300038;28;21711;-74
2022/01/09 09:24:23;;;;;;;2.55;1.08;;;9.80;63.90;;;;;;6332128;27;20027;-73
2022/01/09 09:27:30;;;;;;;5.97;1.52;;;9.80;63.90;;;;;;6330244;27;20020;-73
2022/01/09 09:30:31;;;;;;;5.63;1.15;;;9.90;64.00;;;;;;6327112;27;20461;-73
2022/01/09 09:33:32;;;;;;;2.33;1.65;;;9.90;63.90;;;;;;6348394;27;20511;-74
2022/01/09 09:36:33;;;;;;;1.30;1.00;;;9.90;63.80;;;;;;6347662;28;20019;-73
2022/01/09 09:39:34;;;;;;;3.08;1.38;;;9.90;63.60;;;;;;6346282;28;20628;-74
2022/01/09 09:42:35;;;;;;;5.07;1.65;;;9.90;63.60;;;;;;6344312;28;20031;-74
2022/01/09 09:45:36;;;;;;;1.25;0.90;;;9.80;63.60;;;;;;6314588;28;20599;-74
2022/01/09 09:48:38;;;;;;;2.13;0.90;;;9.80;63.90;;;;;;6344497;27;20118;-76
2022/01/09 09:51:39;;;;;;;3.67;0.95;;;9.70;63.80;;;;;;6325022;27;20043;-74
2022/01/09 09:54:41;;;;;;;4.07;0.80;;;9.70;63.80;;;;;;6329519;27;20363;-75
2022/01/09 09:57:42;;;;;;;1.88;0.88;;;9.70;63.90;;;;;;6355626;27;20493;-75
2022/01/09 10:00:57;;;;;;;2.58;1.10;;;9.60;63.80;;;;;;6352063;27;20023;-75
2022/01/09 10:04:19;;;;;;;3.30;1.20;;;9.60;63.80;;;;;;6345945;27;20031;-74
2022/01/09 10:07:23;;;;;;;5.60;2.55;;;9.60;64.00;;;;;;6330078;27;20023;-74
2022/01/09 10:10:33;;;;;;;3.42;2.10;;;9.60;64.20;;;;;;6329923;27;20033;-74
2022/01/09 10:13:34;;;;;;;8.45;2.08;;;9.50;64.20;;;;;;6329424;27;20073;-74
2022/01/09 10:16:35;;;;;;;5.68;1.42;;;9.50;64.40;;;;;;6332895;27;20704;-75
2022/01/09 10:20:17;;;;;;;3.75;1.98;;;9.40;64.70;;;;;;6331131;27;20031;-74
2022/01/09 10:23:18;;;;;;;5.05;1.77;;;9.40;65.10;;;;;;6255518;28;20485;-74
2022/01/09 10:26:20;;;;;;;3.28;1.65;;;9.40;65.10;;;;;;6233606;28;20025;-74
2022/01/09 10:29:21;;;;;;;3.72;1.70;;;9.40;65.30;;;;;;6257453;28;20116;-73
2022/01/09 10:32:30;;;;;;;2.70;1.55;;;9.40;65.30;;;;;;6236197;28;20488;-74
2022/01/09 10:35:31;;;;;;;7.72;1.92;;;9.50;65.50;;;;;;6252655;28;20041;-73
2022/01/09 10:38:32;;;;;;;4.40;1.27;;;9.50;65.60;;;;;;6251570;28;20121;-73
2022/01/09 10:41:45;;;;;;;4.03;1.50;;;9.50;65.70;;;;;;6249919;28;20068;-75
2022/01/09 10:44:47;;;;;;;14.88;2.75;;;9.50;65.70;;;;;;6233202;28;20032;-74
2022/01/09 10:47:49;;;;;;;6.03;2.08;;;9.50;66.00;;;;;;6216520;28;20037;-75
2022/01/09 10:50:52;;;;;;;5.60;2.00;;;9.50;66.10;;;;;;6247680;28;20037;-74
2022/01/09 10:53:53;;;;;;;4.65;1.92;;;9.50;66.10;;;;;;6296293;27;20114;-75
2022/01/09 10:57:24;;;;;;;6.05;1.60;;;9.50;66.10;;;;;;6314530;27;20107;-73
2022/01/09 11:00:28;;;;;;;8.98;1.92;;;9.50;66.90;;;;;;6325411;27;20119;-74
2022/01/09 11:03:29;;;;;;;4.93;1.60;;;9.50;66.20;;;;;;6346759;27;20079;-73
2022/01/09 11:06:31;;;;;;;4.20;1.27;;;9.50;66.20;;;;;;6343060;27;20027;-74
2022/01/09 11:09:33;;;;;;;1.85;0.90;;;9.50;65.80;;;;;;6344720;27;20626;-75
2022/01/09 11:19:19;;;;;;;6.10;1.20;;;9.50;65.40;;;;;;6272309;28;20032;-73
2022/01/09 11:22:21;;;;;;;4.75;2.05;;;9.50;65.30;;;;;;6298502;22;20395;-75
2022/01/09 11:25:37;;;;;;;8.07;1.80;;;9.50;65.20;;;;;;6285940;28;20044;-74
2022/01/09 11:28:41;;;;;;;10.65;2.25;;;9.50;65.10;;;;;;6267078;28;20036;-74
2022/01/09 11:32:14;;;;;;;8.88;2.42;;;9.60;65.00;;;;;;6289930;28;20056;-74
2022/01/09 11:35:24;;;;;;;4.93;1.50;;;9.60;65.20;;;;;;6266761;28;20376;-73
2022/01/09 11:39:02;;;;;;;2.47;1.25;;;9.60;65.10;;;;;;6274277;28;20035;-73
2022/01/09 11:42:09;;;;;;;3.38;1.60;;;9.70;65.20;;;;;;6288120;28;20460;-75
2022/01/09 11:45:11;;;;;;;5.25;1.20;;;9.80;65.10;;;;;;6275817;28;20554;-74
2022/01/09 11:48:15;;;;;;;5.53;1.35;;;9.80;64.90;;;;;;6274176;28;20463;-73
2022/01/09 11:51:17;;;;;;;5.65;0.90;;;9.90;64.50;;;;;;6289537;28;20024;-75
2022/01/09 11:54:20;;;;;;;9.82;2.42;;;10.00;64.50;;;;;;6288657;28;20107;-75
2022/01/09 11:57:46;;;;;;;7.72;1.60;;;10.00;64.30;;;;;;6268225;28;20052;-74
2022/01/09 12:00:49;;;;;;;1.98;0.80;;;10.10;63.70;;;;;;6287186;28;20412;-75
2022/01/09 12:03:50;;;;;;;5.50;1.88;;;10.10;63.40;;;;;;6303484;28;20024;-75
2022/01/09 12:06:54;;;;;;;17.20;1.77;;;10.10;63.20;;;;;;6303717;28;20021;-74
2022/01/09 12:09:55;;;;;;;10.45;1.77;;;10.20;63.10;;;;;;6286843;28;20078;-74
2022/01/09 12:12:57;;;;;;;6.18;1.83;;;10.20;63.90;;;;;;6303239;28;20548;-75
2022/01/09 12:15:58;;;;;;;5.35;1.80;;;10.20;63.10;;;;;;6303899;28;20305;-74
2022/01/09 12:18:59;;;;;;;6.20;0.95;;;10.20;63.00;;;;;;6304562;28;20032;-74
2022/01/09 12:22:00;;;;;;;3.03;1.00;;;10.20;63.10;;;;;;6303554;28;20044;-74
2022/01/09 12:25:01;;;;;;;5.68;1.30;;;10.20;62.70;;;;;;6272357;28;20035;-74
2022/01/09 12:28:14;;;;;;;6.05;1.50;;;10.20;62.40;;;;;;6252095;28;20036;-74
2022/01/09 12:31:24;;;;;;;14.45;2.03;;;10.10;62.40;;;;;;6272639;28;20047;-77
2022/01/09 12:34:27;;;;;;;5.43;1.50;;;10.20;62.50;;;;;;6270567;28;20028;-73
2022/01/09 12:37:28;;;;;;;4.55;1.17;;;10.20;62.70;;;;;;6232445;28;20112;-75
2022/01/09 12:40:35;;;;;;;8.20;2.33;;;10.20;62.70;;;;;;6249038;28;20039;-75
2022/01/09 12:43:38;;;;;;;10.77;2.13;;;10.20;62.20;;;;;;6241874;28;20416;-74
2022/01/09 12:46:41;;;;;;;5.53;1.98;;;10.20;62.30;;;;;;6237258;28;20051;-79
2022/01/09 12:49:42;;;;;;;14.55;1.65;;;10.10;62.40;;;;;;6238056;28;20119;-79
2022/01/09 12:52:44;;;;;;;8.27;2.42;;;10.10;62.40;;;;;;6256884;28;23227;-80
2022/01/09 12:56:10;;;;;;;5.60;1.48;;;10.10;62.40;;;;;;6254129;28;20826;-80
2022/01/09 12:59:14;;;;;;;5.93;1.88;;;10.00;62.50;;;;;;6291131;28;20050;-81
2022/01/09 13:02:15;;;;;;;6.05;1.70;;;9.90;62.70;;;;;;6290241;28;20032;-81
2022/01/09 13:05:27;;;;;;;6.93;2.00;;;9.90;62.80;;;;;;6293460;28;20424;-80
2022/01/09 13:08:29;;;;;;;9.88;1.75;;;9.90;62.90;;;;;;6269848;28;20021;-80
2022/01/09 13:11:31;;;;;;;2.70;1.60;;;9.80;63.10;;;;;;6259671;28;20066;-80
2022/01/09 13:14:33;;;;;;;18.75;1.73;;;9.80;63.40;;;;;;6276238;28;20056;-81
2022/01/09 13:17:46;;;;;;;6.53;1.30;;;9.80;63.50;;;;;;6271071;28;21207;-82
2022/01/09 13:20:47;;;;;;;6.40;1.98;;;9.80;63.70;;;;;;6267327;28;20045;-79
2022/01/09 13:24:02;;;;;;;5.75;1.73;;;9.80;64.60;;;;;;6246460;28;20037;-79
2022/01/09 13:27:04;;;;;;;9.55;2.30;;;9.70;63.80;;;;;;6288108;28;20029;-80
2022/01/09 13:30:07;;;;;;;5.78;2.42;;;9.70;64.00;;;;;;6285241;28;20023;-80
2022/01/09 13:33:08;;;;;;;7.85;2.10;;;9.70;64.30;;;;;;6269709;28;20063;-80
2022/01/09 13:36:28;;;;;;;7.45;2.17;;;9.70;64.50;;;;;;6229043;28;20131;-80
2022/01/09 13:39:30;;;;;;;10.25;2.25;;;9.70;64.40;;;;;;6266826;28;20035;-79
2022/01/09 13:42:32;;;;;;;7.35;2.17;;;9.70;64.50;;;;;;6260364;28;20029;-80
2022/01/09 13:45:35;;;;;;;5.82;2.40;;;9.70;64.70;;;;;;6265884;28;20732;-80
2022/01/09 13:48:48;;;;;;;14.85;2.65;;;9.70;64.90;;;;;;6232125;28;20028;-80
2022/01/09 13:51:50;;;;;;;7.43;2.15;;;9.70;64.80;;;;;;6237464;28;20414;-79
2022/01/09 13:55:06;;;;;;;5.03;1.77;;;9.60;64.90;;;;;;6251461;28;20052;-80
2022/01/09 13:58:15;;;;;;;9.27;2.28;;;9.70;65.10;;;;;;6215332;28;20097;-81
2022/01/09 14:01:48;;;;;;;5.47;2.00;;;9.60;64.90;;;;;;6266180;28;20035;-80
2022/01/09 14:05:23;;;;;;;8.52;1.75;;;9.50;65.10;;;;;;6248402;28;20566;-82
2022/01/09 14:08:36;;;;;;;8.35;1.55;;;9.50;65.60;;;;;;6163843;28;20049;-79
2022/01/09 14:11:37;;;;;;;14.82;2.40;;;9.50;65.50;;;;;;6158698;28;20105;-82
2022/01/09 14:14:42;;;;;;;5.43;2.13;;;9.60;65.70;;;;;;6159253;28;20064;-79
2022/01/09 14:17:48;;;;;;;6.45;2.63;;;9.60;65.80;;;;;;6171493;28;20053;-79
2022/01/09 14:20:51;;;;;;;7.13;2.20;;;9.60;65.80;;;;;;6152424;28;20054;-79
2022/01/09 14:23:53;;;;;;;12.18;1.95;;;9.60;65.90;;;;;;6170249;28;20038;-80
2022/01/09 14:26:56;;;;;;;7.47;2.17;;;9.70;66.10;;;;;;6150068;28;21980;-80
2022/01/09 14:29:59;;;;;;;11.57;1.88;;;9.70;66.20;;;;;;6162252;28;20105;-80
2022/01/09 14:33:08;;;;;;;12.05;2.40;;;9.70;66.10;;;;;;6143457;28;20041;-79
2022/01/09 14:36:17;;;;;;;14.60;3.17;;;9.70;66.20;;;;;;6173409;28;20048;-79
2022/01/09 14:39:20;;;;;;;17.73;3.10;;;9.70;66.10;;;;;;6143145;28;21375;-80
2022/01/09 14:42:21;;;;;;;8.25;1.83;;;9.70;66.10;;;;;;6157470;28;20157;-80
2022/01/09 14:45:23;;;;;;;10.88;3.58;;;9.70;66.40;;;;;;6235877;28;20028;-81
2022/01/09 14:48:26;;;;;;;10.40;2.67;;;9.60;67.30;;;;;;6239282;28;20032;-79
2022/01/09 14:51:27;;;;;;;10.32;2.30;;;9.60;66.40;;;;;;6229827;28;22656;-80
2022/01/09 14:54:29;;;;;;;10.07;2.72;;;9.70;66.50;;;;;;6237066;28;20484;-80
2022/01/09 14:57:33;;;;;;;12.48;2.22;;;9.70;66.60;;;;;;6215259;28;20042;-80
2022/01/09 15:00:35;;;;;;;6.65;2.33;;;9.60;66.60;;;;;;6234434;28;20111;-79
2022/01/09 15:03:37;;;;;;;7.07;1.85;;;9.60;66.60;;;;;;6223734;28;20048;-82
2022/01/09 15:06:39;;;;;;;8.50;2.10;;;9.60;66.50;;;;;;6253401;28;20616;-80
2022/01/09 15:09:41;;;;;;;8.60;2.65;;;9.50;66.80;;;;;;6249108;28;20781;-79
2022/01/09 15:12:42;;;;;;;6.30;1.55;;;9.50;66.80;;;;;;6257152;28;20049;-81
2022/01/09 15:15:47;;;;;;;6.85;1.83;;;9.50;66.90;;;;;;6237300;28;20028;-79
2022/01/09 15:18:48;;;;;;;10.70;2.03;;;9.50;66.70;;;;;;6241282;28;20023;-80
2022/01/09 15:21:50;;;;;;;8.38;2.38;;;9.40;66.70;;;;;;6265009;28;20070;-80
2022/01/09 15:24:51;;;;;;;5.05;2.20;;;9.40;66.90;;;;;;6268766;28;20524;-80
2022/01/09 15:27:55;;;;;;;11.32;2.83;;;9.30;67.00;;;;;;6267585;28;20033;-79
2022/01/09 15:31:00;;;;;;;7.68;2.40;;;9.30;67.10;;;;;;6266747;28;20048;-79
2022/01/09 15:34:01;;;;;;;9.60;1.90;;;9.30;67.10;;;;;;6260744;28;20058;-82
2022/01/09 15:37:07;;;;;;;7.07;1.60;;;9.30;67.00;;;;;;6261808;28;20032;-79
2022/01/09 15:40:08;;;;;;;4.50;1.80;;;9.30;67.00;;;;;;6260535;28;20092;-79
2022/01/09 15:43:10;;;;;;;3.95;1.52;;;9.20;67.10;;;;;;6272525;28;20391;-78
2022/01/09 15:46:11;;;;;;;9.43;2.55;;;9.20;67.20;;;;;;6272790;28;20024;-76
2022/01/09 15:49:14;;;;;;;7.38;2.55;;;9.10;67.30;;;;;;6302704;28;20020;-78
2022/01/09 15:52:15;;;;;;;4.75;1.60;;;9.00;67.30;;;;;;6306418;28;20117;-80
2022/01/09 15:55:16;;;;;;;3.45;1.45;;;8.90;67.40;;;;;;6296927;28;20031;-81
2022/01/09 15:58:18;;;;;;;6.00;1.40;;;8.80;67.50;;;;;;6301304;28;20111;-81
2022/01/09 16:01:25;;;;;;;4.03;2.15;;;8.80;67.80;;;;;;6291181;28;20056;-81
2022/01/09 16:04:26;;;;;;;11.40;1.95;;;8.70;67.80;;;;;;6272964;28;20739;-82
2022/01/09 16:07:27;;;;;;;1.42;1.20;;;8.60;67.80;;;;;;6291731;28;20024;-79
2022/01/09 16:10:28;;;;;;;5.97;1.50;;;8.60;68.00;;;;;;6281528;28;20032;-80